Time;durP1;ratioP1;P1;durP2;ratioP2;P2;SDS_P1;SDS_P2;PMS_P1;PMS_P2;Temp;Humidity;BMP_temperature;BMP_pressure;BME280_temperature;BME280_humidity;BME280_pressure;Samples;Min_cycle;Max_cycle;Signal;HPM_P1;HPM_P2
2021/04/06 00:00:12;;;;;;;8.77;7.43;;;;;;;0.36;80.21;97845.20;113600;1199;64551;-77
2021/04/06 00:03:02;;;;;;;10.40;7.27;;;;;;;0.34;80.23;97845.30;113612;1200;64388;-77
2021/04/06 00:05:31;;;;;;;11.60;7.75;;;;;;;0.33;80.49;97843.58;113589;1200;64385;-77
2021/04/06 00:08:00;;;;;;;6.70;6.00;;;;;;;0.34;80.66;97852.28;113659;1199;64379;-77
2021/04/06 00:10:32;;;;;;;6.75;4.63;;;;;;;0.35;81.24;97848.77;113616;1199;64433;-77
2021/04/06 00:13:00;;;;;;;9.97;7.13;;;;;;;0.31;80.72;97858.50;113593;1200;64381;-77
2021/04/06 00:15:28;;;;;;;9.35;7.55;;;;;;;0.27;80.64;97858.73;113637;1200;64435;-77
2021/04/06 00:17:59;;;;;;;8.80;7.20;;;;;;;0.26;80.82;97855.23;113662;1200;64356;-77
2021/04/06 00:20:28;;;;;;;8.40;6.87;;;;;;;0.28;80.62;97856.02;113689;1200;64386;-77
2021/04/06 00:22:58;;;;;;;8.25;7.20;;;;;;;0.30;80.86;97853.35;113696;1199;64384;-77
2021/04/06 00:25:32;;;;;;;8.00;6.83;;;;;;;0.29;80.64;97864.73;113646;1200;64420;-77
2021/04/06 00:28:05;;;;;;;9.10;7.10;;;;;;;0.29;80.75;97860.37;113639;1199;64483;-77
2021/04/06 00:30:34;;;;;;;9.67;7.43;;;;;;;0.28;80.76;97868.28;113679;1199;64848;-77
2021/04/06 00:33:06;;;;;;;;;;;;;;;0.26;80.70;97862.25;113737;1206;64382;-77
2021/04/06 00:35:35;;;;;;;10.90;8.90;;;;;;;0.24;80.95;97864.08;113640;1200;64353;-77
2021/04/06 00:38:06;;;;;;;9.40;7.73;;;;;;;0.21;80.86;97863.32;113693;1199;64410;-77
2021/04/06 00:40:37;;;;;;;11.73;10.53;;;;;;;0.21;80.99;97865.94;113572;1200;64417;-77
2021/04/06 00:43:05;;;;;;;11.90;10.30;;;;;;;0.19;80.84;97880.02;113578;1197;64481;-77
2021/04/06 00:45:37;;;;;;;11.93;10.10;;;;;;;0.19;80.94;97873.01;113648;1200;64417;-77
2021/04/06 00:48:11;;;;;;;12.40;11.10;;;;;;;0.23;80.81;97868.47;113570;1199;64305;-77
2021/04/06 00:50:39;;;;;;;14.35;12.70;;;;;;;0.25;80.67;97864.02;113644;1199;64490;-76
2021/04/06 00:53:06;;;;;;;12.50;9.97;;;;;;;0.25;80.95;97871.04;113685;1200;64423;-77
2021/04/06 00:55:36;;;;;;;14.33;9.20;;;;;;;0.22;80.69;97869.41;113663;1199;64419;-76
2021/04/06 00:58:16;;;;;;;17.23;9.93;;;;;;;0.23;81.25;97878.11;113625;1200;64343;-77
2021/04/06 01:00:43;;;;;;;;;;;;;;;0.25;81.13;97881.52;113650;1204;64487;-76
2021/04/06 01:03:17;;;;;;;10.23;7.80;;;;;;;0.22;80.98;97877.27;113615;1199;64340;-76
2021/04/06 01:06:00;;;;;;;8.87;6.97;;;;;;;0.20;81.20;97882.56;113658;1199;64427;-77
2021/04/06 01:08:28;;;;;;;12.20;8.77;;;;;;;0.18;81.04;97879.14;113656;1200;64346;-76
2021/04/06 01:10:56;;;;;;;11.63;9.00;;;;;;;0.16;81.14;97885.40;113554;1200;64343;-76
2021/04/06 01:13:24;;;;;;;12.20;10.13;;;;;;;0.17;81.01;97890.55;113618;1200;64304;-77
2021/04/06 01:15:51;;;;;;;10.83;8.83;;;;;;;0.19;81.25;97895.74;113571;1200;64387;-77
2021/04/06 01:18:19;;;;;;;12.43;8.37;;;;;;;0.19;81.12;97890.50;113630;1200;64396;-76
2021/04/06 01:20:46;;;;;;;10.25;7.60;;;;;;;0.20;81.29;97894.81;113659;1200;64378;-77
2021/04/06 01:23:17;;;;;;;8.27;6.17;;;;;;;0.17;81.19;97898.41;113640;1199;64477;-76
2021/04/06 01:25:48;;;;;;;11.67;8.17;;;;;;;0.19;81.35;97895.74;113581;1200;64483;-76
2021/04/06 01:28:15;;;;;;;10.03;7.93;;;;;;;0.20;81.24;97885.17;113538;1199;64391;-76
2021/04/06 01:30:51;;;;;;;10.50;7.43;;;;;;;0.19;81.27;97883.48;113633;1200;64340;-76
2021/04/06 01:33:23;;;;;;;10.35;8.30;;;;;;;0.18;81.23;97883.53;113536;1200;64417;-76
2021/04/06 01:35:56;;;;;;;11.30;7.67;;;;;;;0.17;80.96;97868.75;113661;1199;64346;-76
2021/04/06 01:38:28;;;;;;;9.25;7.35;;;;;;;0.18;81.08;97867.81;113588;1198;64484;-76
2021/04/06 01:40:57;;;;;;;10.60;7.63;;;;;;;0.15;81.24;97874.05;113628;1200;64500;-76
2021/04/06 01:43:28;;;;;;;10.83;8.63;;;;;;;0.13;81.04;97881.14;113660;1199;64407;-76
2021/04/06 01:46:13;;;;;;;13.63;7.50;;;;;;;0.15;80.98;97881.05;113621;1199;64381;-75
2021/04/06 01:48:40;;;;;;;10.47;7.80;;;;;;;0.13;81.28;97890.74;113631;1200;64806;-76
2021/04/06 01:51:08;;;;;;;9.37;6.67;;;;;;;0.11;81.03;97895.22;113611;1199;64433;-76
2021/04/06 01:53:35;;;;;;;12.53;7.53;;;;;;;0.11;81.29;97880.34;113544;1199;64445;-77
2021/04/06 01:56:10;;;;;;;11.80;7.60;;;;;;;0.11;81.23;97882.13;113639;1199;64491;-77
2021/04/06 01:58:40;;;;;;;10.27;7.10;;;;;;;0.13;81.22;97882.88;113577;1200;64401;-76
2021/04/06 02:03:40;;;;;;;11.20;8.15;;;;;;;0.11;81.16;97885.59;113666;1198;64375;-77
2021/04/06 02:06:09;;;;;;;10.40;6.57;;;;;;;0.12;81.12;97891.67;113664;1198;64522;-75
2021/04/06 02:08:38;;;;;;;11.03;6.73;;;;;;;0.09;81.06;97889.19;113672;1199;64379;-76
2021/04/06 02:11:05;;;;;;;11.20;7.15;;;;;;;0.06;80.96;97884.08;113662;1199;64423;-76
2021/04/06 02:13:32;;;;;;;10.75;7.25;;;;;;;0.01;81.14;97884.27;113623;1200;64308;-76
2021/04/06 02:16:03;;;;;;;10.75;6.95;;;;;;;-0.01;81.21;97893.95;113654;1200;64378;-76
2021/04/06 02:18:32;;;;;;;20.40;8.05;;;;;;;0.00;81.15;97893.05;113588;1199;64394;-77
2021/04/06 02:21:01;;;;;;;9.30;6.53;;;;;;;0.02;81.33;97899.05;113608;1200;64366;-76
2021/04/06 02:23:38;;;;;;;10.77;7.10;;;;;;;-0.03;81.26;97891.41;113673;1200;64330;-77
2021/04/06 02:26:05;;;;;;;7.20;5.67;;;;;;;-0.03;81.41;97907.13;113647;1200;64368;-77
2021/04/06 02:28:32;;;;;;;10.93;7.03;;;;;;;-0.01;81.48;97904.43;113596;1200;64407;-77
2021/04/06 02:31:01;;;;;;;10.13;7.80;;;;;;;0.03;81.23;97899.91;113539;1200;64366;-76
2021/04/06 02:33:31;;;;;;;13.83;8.67;;;;;;;0.05;81.11;97906.78;113600;1200;64455;-77
2021/04/06 02:36:01;;;;;;;8.63;6.78;;;;;;;0.06;81.26;97905.88;113571;1200;64387;-77
2021/04/06 02:38:31;;;;;;;7.25;5.85;;;;;;;0.08;81.28;97909.30;113662;1200;64407;-77
2021/04/06 02:41:14;;;;;;;10.40;7.10;;;;;;;0.11;81.39;97918.80;113627;1198;64378;-76
2021/04/06 02:43:47;;;;;;;12.50;7.27;;;;;;;0.12;81.42;97929.19;113546;1198;64480;-77
2021/04/06 02:46:18;;;;;;;11.47;7.03;;;;;;;0.12;81.50;97926.57;113638;1199;64417;-77
2021/04/06 02:48:45;;;;;;;9.97;7.17;;;;;;;0.14;81.57;97929.14;113679;1200;64375;-78
2021/04/06 02:51:13;;;;;;;10.30;7.60;;;;;;;0.17;81.37;97924.61;113665;1200;64362;-77
2021/04/06 02:53:40;;;;;;;14.47;8.60;;;;;;;0.16;81.37;97933.40;113676;1200;64365;-76
2021/04/06 02:56:08;;;;;;;12.87;8.73;;;;;;;0.15;81.28;97933.45;113727;1199;64491;-76
2021/04/06 02:58:37;;;;;;;12.10;7.83;;;;;;;0.17;81.23;97927.23;113772;1200;64397;-76
2021/04/06 03:01:12;;;;;;;12.83;8.53;;;;;;;0.16;81.43;97945.66;113817;1199;64748;-77
2021/04/06 03:03:40;;;;;;;12.17;8.70;;;;;;;0.16;81.37;97956.13;113785;1199;64375;-78
2021/04/06 03:06:14;;;;;;;15.00;8.40;;;;;;;0.17;81.27;97961.29;113613;1198;64391;-77
2021/04/06 03:08:42;;;;;;;10.80;7.03;;;;;;;0.17;81.37;97963.06;113609;1200;64538;-77
2021/04/06 03:11:10;;;;;;;8.03;6.50;;;;;;;0.15;81.24;97960.49;113576;1199;64339;-77
2021/04/06 03:13:43;;;;;;;9.77;6.33;;;;;;;0.14;81.05;97965.81;113595;1200;64308;-77
2021/04/06 03:16:11;;;;;;;10.37;6.77;;;;;;;0.12;81.30;97970.26;113588;1200;64455;-77
2021/04/06 03:18:41;;;;;;;10.50;7.03;;;;;;;0.10;80.89;97961.61;113616;1200;64382;-77
2021/04/06 03:21:10;;;;;;;10.23;6.83;;;;;;;0.11;81.14;97947.61;113554;1199;64484;-76
2021/04/06 03:23:38;;;;;;;7.40;6.25;;;;;;;0.12;81.42;97933.59;113638;1200;64397;-76
2021/04/06 03:26:07;;;;;;;8.10;5.80;;;;;;;0.11;81.20;97937.98;113607;1199;64385;-77
2021/04/06 03:28:38;;;;;;;7.70;5.87;;;;;;;0.12;80.88;97936.20;113598;1199;64324;-78
2021/04/06 03:31:05;;;;;;;9.33;6.33;;;;;;;0.11;80.64;97924.88;113638;1199;64365;-77
2021/04/06 03:33:32;;;;;;;9.07;5.77;;;;;;;0.12;80.70;97923.11;113579;1199;64538;-77
2021/04/06 03:35:59;;;;;;;9.45;6.30;;;;;;;0.10;80.18;97923.16;113582;1199;64359;-78
2021/04/06 03:38:25;;;;;;;9.53;5.50;;;;;;;;;;113523;1200;64432;-76
2021/04/06 03:40:52;;;;;;;11.20;5.95;;;;;;;0.07;80.19;97935.54;113645;1200;64407;-77
2021/04/06 03:43:20;;;;;;;11.67;7.10;;;;;;;0.05;80.09;97935.59;113649;1198;64337;-77
2021/04/06 03:45:58;;;;;;;11.50;6.90;;;;;;;0.08;80.36;97942.47;113561;1199;64381;-76
2021/04/06 03:48:27;;;;;;;11.87;6.57;;;;;;;0.06;80.02;97929.45;113597;1200;64359;-76
2021/04/06 03:50:54;;;;;;;12.63;7.40;;;;;;;0.03;79.48;97941.81;113649;1200;64333;-76
2021/04/06 03:53:23;;;;;;;12.23;7.33;;;;;;;0.01;79.84;97943.66;113587;1199;64388;-78
2021/04/06 03:56:05;;;;;;;10.27;6.90;;;;;;;-0.04;79.84;97936.84;113638;1199;64414;-76
2021/04/06 03:58:37;;;;;;;11.50;6.90;;;;;;;-0.06;79.85;97938.66;113643;1200;64489;-77
2021/04/06 04:01:05;;;;;;;13.10;8.50;;;;;;;-0.05;79.92;97948.23;113622;1200;64442;-78
2021/04/06 04:03:33;;;;;;;11.67;8.37;;;;;;;-0.07;79.60;97942.20;113662;1200;64436;-76
2021/04/06 04:05:59;;;;;;;14.83;9.70;;;;;;;-0.07;79.79;97941.36;113641;1199;64292;-76
2021/04/06 04:08:27;;;;;;;14.27;9.60;;;;;;;-0.08;79.39;97945.75;113633;1200;64311;-77
2021/04/06 04:10:53;;;;;;;13.35;8.30;;;;;;;-0.08;79.39;97952.73;113594;1200;64493;-77
2021/04/06 04:13:20;;;;;;;12.20;8.10;;;;;;;-0.10;79.22;97958.05;113627;1200;64368;-78
2021/04/06 04:15:47;;;;;;;10.80;7.45;;;;;;;-0.14;79.42;97969.55;113626;1199;64375;-77
2021/04/06 04:18:14;;;;;;;15.33;8.17;;;;;;;-0.17;79.77;97972.30;113628;1199;64353;-77
2021/04/06 04:20:42;;;;;;;17.15;8.90;;;;;;;-0.16;79.99;97981.84;113643;1200;64490;-77
2021/04/06 04:23:09;;;;;;;14.87;8.63;;;;;;;-0.16;79.77;97958.27;113651;1199;64404;-77
2021/04/06 04:25:36;;;;;;;12.63;9.30;;;;;;;-0.13;79.34;97965.16;113574;1199;64490;-77
2021/04/06 04:28:04;;;;;;;10.80;7.50;;;;;;;-0.10;79.38;97972.91;113579;1200;64382;-78
2021/04/06 04:33:08;;;;;;;13.57;8.43;;;;;;;-0.15;79.21;97975.70;113635;1199;64349;-77
2021/04/06 04:35:36;;;;;;;16.63;8.37;;;;;;;-0.16;79.05;97949.57;113593;1199;64385;-77
2021/04/06 04:38:04;;;;;;;17.10;10.43;;;;;;;-0.15;79.28;97969.63;113638;1199;64410;-78
2021/04/06 04:40:32;;;;;;;19.65;11.30;;;;;;;-0.14;79.16;97972.16;113679;1198;64346;-77
2021/04/06 04:42:59;;;;;;;14.47;9.37;;;;;;;-0.10;79.14;97958.05;113653;1199;64413;-77
2021/04/06 04:45:25;;;;;;;16.10;10.45;;;;;;;-0.05;78.86;97969.19;113645;1200;64333;-77
2021/04/06 04:47:53;;;;;;;16.60;12.05;;;;;;;-0.05;78.75;97984.06;113652;1199;64497;-77
2021/04/06 04:50:21;;;;;;;19.00;12.70;;;;;;;-0.05;78.76;97997.16;113680;1199;64382;-78
2021/04/06 04:52:49;;;;;;;19.27;10.63;;;;;;;-0.08;78.89;98005.98;113657;1199;64464;-77
2021/04/06 04:55:18;;;;;;;12.30;8.43;;;;;;;-0.09;78.74;97995.55;113664;1199;64314;-77
2021/04/06 04:57:45;;;;;;;19.50;10.83;;;;;;;-0.07;78.72;97993.73;113692;1200;64381;-78
2021/04/06 05:00:14;;;;;;;13.73;9.13;;;;;;;-0.11;79.31;97995.61;113549;1199;64439;-78
2021/04/06 05:02:42;;;;;;;12.73;9.95;;;;;;;-0.07;78.83;98001.59;113677;1199;64398;-77
2021/04/06 05:05:11;;;;;;;16.60;9.70;;;;;;;-0.01;78.78;98011.81;113601;1200;64390;-77
2021/04/06 05:07:39;;;;;;;15.63;10.80;;;;;;;0.01;78.74;98014.38;113698;1200;64522;-77
2021/04/06 05:10:07;;;;;;;17.20;11.27;;;;;;;0.03;78.56;98025.63;113752;1199;64320;-77
2021/04/06 05:12:34;;;;;;;12.45;9.05;;;;;;;0.03;78.33;98020.39;113622;1200;64535;-77
2021/04/06 05:15:02;;;;;;;15.07;9.73;;;;;;;0.02;78.00;98026.55;113677;1199;64381;-77
2021/04/06 05:17:28;;;;;;;16.70;9.90;;;;;;;0.05;78.09;98014.17;113636;1200;64395;-77
2021/04/06 05:19:55;;;;;;;17.40;12.13;;;;;;;0.10;78.35;98021.86;113659;1200;64395;-77
2021/04/06 05:22:21;;;;;;;16.07;11.93;;;;;;;0.12;78.29;98017.41;113638;1199;64481;-78
2021/04/06 05:24:48;;;;;;;15.90;11.50;;;;;;;0.18;77.92;98017.16;113599;1200;64526;-76
2021/04/06 05:27:15;;;;;;;15.10;10.77;;;;;;;0.31;77.84;98000.02;113655;1200;64455;-76
2021/04/06 05:29:41;;;;;;;16.43;10.57;;;;;;;0.46;77.32;98002.92;113565;1199;64330;-77
2021/04/06 05:32:08;;;;;;;16.97;11.30;;;;;;;0.64;77.29;98008.23;113517;1199;64880;-77
2021/04/06 05:34:35;;;;;;;14.87;9.83;;;;;;;0.82;76.94;98010.99;113645;1199;64790;-77
2021/04/06 05:37:01;;;;;;;12.80;8.50;;;;;;;0.99;76.47;98016.34;113553;1200;64395;-77
2021/04/06 05:39:28;;;;;;;14.73;9.23;;;;;;;1.20;76.05;98008.44;113612;1200;64407;-77
2021/04/06 05:41:55;;;;;;;16.33;9.60;;;;;;;1.43;75.79;98016.13;113634;1199;64849;-77
2021/04/06 05:44:22;;;;;;;17.63;9.70;;;;;;;1.74;75.13;98015.55;113632;1199;64336;-77
2021/04/06 05:46:53;;;;;;;13.95;8.00;;;;;;;2.04;73.65;98016.80;113561;1199;64410;-77
2021/04/06 05:49:28;;;;;;;12.93;7.93;;;;;;;2.25;73.52;98026.27;113613;1200;64378;-77
2021/04/06 05:51:55;;;;;;;12.80;8.10;;;;;;;2.34;73.57;98011.80;113671;1200;64490;-78
2021/04/06 05:54:23;;;;;;;11.30;7.25;;;;;;;2.32;72.94;98005.80;113646;1199;64419;-78
2021/04/06 05:56:50;;;;;;;17.90;7.95;;;;;;;2.23;72.58;98003.61;113679;1200;64967;-77
2021/04/06 05:59:17;;;;;;;13.77;7.57;;;;;;;2.11;72.72;98015.59;113663;1198;65817;-77
2021/04/06 06:01:47;;;;;;;13.77;9.37;;;;;;;2.04;72.93;98009.76;113661;1200;64395;-77
2021/04/06 06:04:18;;;;;;;14.88;9.58;;;;;;;2.02;73.34;98014.23;113677;1199;64388;-77
2021/04/06 06:06:46;;;;;;;14.90;11.05;;;;;;;1.97;72.95;98014.47;113676;1199;64369;-77
2021/04/06 06:09:27;;;;;;;18.57;13.03;;;;;;;1.92;73.13;98016.47;113635;1200;64388;-77
2021/04/06 06:12:04;;;;;;;15.83;10.13;;;;;;;1.95;72.84;98020.73;113658;1199;64470;-77
2021/04/06 06:14:36;;;;;;;15.90;10.13;;;;;;;1.95;73.01;98013.69;113646;1200;64503;-78
2021/04/06 06:17:12;;;;;;;14.10;8.53;;;;;;;1.89;72.32;98027.09;113666;1199;64478;-78
2021/04/06 06:19:39;;;;;;;12.37;8.50;;;;;;;1.86;72.89;98021.99;113660;1200;64315;-78
2021/04/06 06:22:11;;;;;;;13.60;7.60;;;;;;;1.87;72.76;98021.09;113594;1199;64411;-78
2021/04/06 06:24:40;;;;;;;16.70;9.20;;;;;;;1.91;72.07;98016.53;113638;1199;64442;-77
2021/04/06 06:27:38;;;;;;;13.77;11.20;;;;;;;1.94;72.26;98009.34;113653;1200;64382;-77
2021/04/06 06:30:19;;;;;;;13.85;8.10;;;;;;;2.16;72.29;98019.69;113544;1200;64407;-77
2021/04/06 06:32:46;;;;;;;13.27;8.80;;;;;;;2.21;71.92;98016.81;113635;1200;64351;-77
2021/04/06 06:35:33;;;;;;;15.87;9.47;;;;;;;2.19;71.27;98019.53;113657;1200;64468;-78
2021/04/06 06:38:29;;;;;;;17.35;10.30;;;;;;;2.12;71.80;98019.91;113642;1198;64388;-78
2021/04/06 06:41:13;;;;;;;13.00;8.90;;;;;;;2.22;71.12;98020.31;113598;1198;64531;-79
2021/04/06 06:43:45;;;;;;;14.43;8.70;;;;;;;2.35;71.04;98014.38;113619;1199;64429;-77
2021/04/06 06:46:22;;;;;;;14.73;8.50;;;;;;;2.49;70.72;98004.95;113619;1200;64505;-77
2021/04/06 06:49:03;;;;;;;13.40;9.30;;;;;;;2.59;70.12;98014.08;113641;1200;64413;-78
2021/04/06 06:51:37;;;;;;;15.70;9.23;;;;;;;2.64;69.77;98018.17;113638;1200;64343;-78
2021/04/06 06:54:06;;;;;;;11.70;8.27;;;;;;;2.48;69.56;98017.25;113636;1199;64876;-77
2021/04/06 06:56:37;;;;;;;13.30;9.67;;;;;;;2.38;70.03;98008.95;113643;1198;64493;-77
2021/04/06 06:59:05;;;;;;;15.10;10.60;;;;;;;2.33;69.48;98005.70;113663;1199;64410;-77
2021/04/06 07:01:34;;;;;;;19.47;10.80;;;;;;;2.35;69.87;98009.11;113720;1200;64407;-77
2021/04/06 07:04:01;;;;;;;16.97;10.40;;;;;;;2.33;69.03;98000.44;113685;1199;64353;-77
2021/04/06 07:06:28;;;;;;;15.45;9.60;;;;;;;2.35;69.27;98005.64;113622;1200;64564;-77
2021/04/06 07:08:56;;;;;;;15.40;11.07;;;;;;;2.45;69.33;98006.89;113751;1200;64468;-78
2021/04/06 07:11:23;;;;;;;15.83;9.90;;;;;;;2.44;68.89;98014.84;113651;1199;64478;-78
2021/04/06 07:13:54;;;;;;;12.40;8.23;;;;;;;2.37;68.45;98016.91;113619;1200;64410;-77
2021/04/06 07:16:21;;;;;;;18.30;10.17;;;;;;;2.33;68.73;98015.38;113575;1200;64263;-78
2021/04/06 07:18:49;;;;;;;19.50;11.30;;;;;;;2.24;68.91;98027.20;113627;1199;64397;-78
2021/04/06 07:21:19;;;;;;;15.00;8.33;;;;;;;2.26;68.31;98014.81;113637;1199;64487;-77
2021/04/06 07:23:51;;;;;;;14.83;8.27;;;;;;;2.32;67.99;98022.41;113616;1200;64494;-78
2021/04/06 07:26:20;;;;;;;15.37;9.30;;;;;;;2.64;68.53;98028.70;113717;1200;64368;-78
2021/04/06 07:28:47;;;;;;;11.00;6.40;;;;;;;2.98;66.73;98020.88;113663;1200;64395;-78
2021/04/06 07:31:15;;;;;;;11.10;6.90;;;;;;;3.07;66.73;98015.11;113648;1200;64497;-76
2021/04/06 07:33:45;;;;;;;11.30;6.60;;;;;;;3.12;66.31;98026.25;113631;1199;64387;-78
2021/04/06 07:36:15;;;;;;;12.63;6.37;;;;;;;3.14;65.43;98019.13;113597;1199;64385;-78
2021/04/06 07:38:46;;;;;;;15.97;6.90;;;;;;;3.36;65.49;98024.10;113666;1200;64416;-78
2021/04/06 07:41:19;;;;;;;9.23;6.23;;;;;;;3.71;65.31;98022.22;113618;1200;64397;-78
2021/04/06 07:43:47;;;;;;;13.03;6.40;;;;;;;4.09;63.52;98013.11;113602;1200;64313;-78
2021/04/06 07:46:33;;;;;;;10.55;5.50;;;;;;;4.32;63.54;98017.09;113559;1200;64490;-78
2021/04/06 07:49:31;;;;;;;11.60;6.55;;;;;;;4.51;63.82;98016.87;113593;1200;64423;-77
2021/04/06 07:52:05;;;;;;;10.13;6.00;;;;;;;4.62;61.04;98007.38;113598;1199;64487;-77
2021/04/06 07:54:32;;;;;;;13.90;6.60;;;;;;;4.89;61.93;98006.67;113530;1200;64378;-76
2021/04/06 07:57:03;;;;;;;12.57;6.03;;;;;;;5.17;61.99;98005.03;113610;1200;64378;-76
2021/04/06 07:59:29;;;;;;;10.50;5.60;;;;;;;5.28;59.63;98002.57;113602;1199;64455;-78
2021/04/06 08:01:56;;;;;;;8.90;4.83;;;;;;;5.20;58.10;98010.12;113566;1199;64844;-78
2021/04/06 08:04:26;;;;;;;9.20;5.10;;;;;;;5.31;59.47;98002.38;113548;1199;64390;-77
2021/04/06 08:06:54;;;;;;;10.50;5.90;;;;;;;5.45;60.31;97999.75;113658;1198;64407;-77
2021/04/06 08:09:43;;;;;;;10.77;5.87;;;;;;;5.63;59.84;97994.23;113570;1198;64378;-78
2021/04/06 08:12:24;;;;;;;9.90;5.17;;;;;;;5.33;59.76;98005.78;113600;1200;64543;-78
2021/04/06 08:14:53;;;;;;;10.93;4.97;;;;;;;5.24;59.46;98007.20;113655;1199;64400;-78
2021/04/06 08:17:25;;;;;;;8.30;5.40;;;;;;;5.13;60.04;98019.34;113662;1200;64352;-78
2021/04/06 08:19:57;;;;;;;9.25;5.10;;;;;;;5.02;59.50;98012.91;113670;1200;64330;-78
2021/04/06 08:22:37;;;;;;;8.77;5.37;;;;;;;5.03;59.61;98014.63;113538;1200;64481;-77
2021/04/06 08:25:16;;;;;;;9.17;5.03;;;;;;;4.95;58.91;98016.02;113586;1199;64452;-77
2021/04/06 08:27:45;;;;;;;7.97;5.10;;;;;;;4.95;59.42;98016.02;113550;1200;64308;-77
2021/04/06 08:30:26;;;;;;;7.83;5.40;;;;;;;5.00;58.90;98017.47;113614;1200;64570;-77
2021/04/06 08:32:56;;;;;;;10.17;5.33;;;;;;;4.99;58.43;98017.55;113631;1198;64416;-77
2021/04/06 08:35:54;;;;;;;9.83;5.35;;;;;;;4.91;57.59;98007.44;113569;1199;64368;-77
2021/04/06 08:38:23;;;;;;;10.30;5.40;;;;;;;4.94;58.94;97996.69;113681;1199;64481;-77
2021/04/06 08:41:03;;;;;;;12.00;6.80;;;;;;;5.09;59.81;97994.08;113642;1200;64414;-77
2021/04/06 08:43:47;;;;;;;10.50;6.00;;;;;;;5.26;59.72;98001.81;113594;1200;64366;-77
2021/04/06 08:46:16;;;;;;;8.73;4.90;;;;;;;5.26;58.24;98005.30;113613;1199;64410;-77
2021/04/06 08:48:46;;;;;;;8.78;4.83;;;;;;;5.03;58.00;98000.59;114167;1199;64365;-92
2021/04/06 08:51:42;;;;;;;7.90;5.00;;;;;;;4.82;58.08;98005.36;116591;1199;64483;-94
2021/04/06 08:54:17;;;;;;;7.73;5.33;;;;;;;4.66;57.37;97992.23;116583;1199;63172;-93
2021/04/06 08:56:48;;;;;;;7.07;4.87;;;;;;;4.45;57.26;98002.25;116649;1198;64327;-89
2021/04/06 08:59:34;;;;;;;8.53;4.83;;;;;;;4.38;58.40;97996.46;114503;1200;64352;-89
2021/04/06 09:02:15;;;;;;;10.05;4.95;;;;;;;4.36;57.76;97995.69;114044;1199;64301;-89
2021/04/06 09:04:51;;;;;;;9.20;4.50;;;;;;;4.32;56.60;98003.90;114326;1199;64324;-89
2021/04/06 09:07:23;;;;;;;10.13;4.97;;;;;;;4.29;57.04;97977.67;114064;1199;64471;-87
2021/04/06 09:09:59;;;;;;;8.97;4.90;;;;;;;4.32;57.91;97977.52;114136;1199;64385;-89
2021/04/06 09:12:27;;;;;;;5.77;4.30;;;;;;;4.36;57.63;97953.48;114091;1198;64362;-90
2021/04/06 09:14:55;;;;;;;10.50;5.33;;;;;;;4.36;57.90;97957.92;114051;1200;64381;-88
2021/04/06 09:17:32;;;;;;;11.73;5.77;;;;;;;4.50;58.65;97954.47;115441;1198;64317;-93
2021/04/06 09:20:01;;;;;;;12.27;5.70;;;;;;;4.59;57.97;97959.22;115455;1199;64311;-91
2021/04/06 09:22:29;;;;;;;11.53;6.33;;;;;;;4.76;57.81;97961.68;114473;1200;64393;-86
2021/04/06 09:24:56;;;;;;;12.00;6.17;;;;;;;5.09;58.25;97965.03;113881;1200;64310;-84
2021/04/06 09:27:22;;;;;;;9.27;5.40;;;;;;;5.14;56.91;97960.32;113730;1199;64516;-85
2021/04/06 09:29:50;;;;;;;12.13;7.30;;;;;;;5.39;58.01;97962.27;113698;1198;64397;-81
2021/04/06 09:32:19;;;;;;;10.23;5.77;;;;;;;5.64;56.91;97951.86;113621;1199;64487;-82
2021/04/06 09:34:49;;;;;;;;;;;;;;;5.61;54.83;97954.70;113767;1206;64368;-81
2021/04/06 09:37:20;;;;;;;14.15;8.10;;;;;;;5.28;56.71;97963.78;113816;1200;64388;-82
2021/04/06 09:39:57;;;;;;;9.05;6.20;;;;;;;5.54;57.21;97966.61;113664;1199;64305;-81
2021/04/06 09:42:24;;;;;;;15.80;8.37;;;;;;;6.01;56.58;97951.33;113623;1199;64414;-82
2021/04/06 09:44:52;;;;;;;9.73;5.07;;;;;;;6.13;55.06;97964.61;113727;1199;64388;-82
2021/04/06 09:47:22;;;;;;;7.55;5.10;;;;;;;6.00;55.05;97981.35;113701;1200;64391;-82
2021/04/06 09:49:54;;;;;;;9.25;4.55;;;;;;;5.73;54.58;97977.70;113663;1199;64391;-81
2021/04/06 09:52:27;;;;;;;7.65;5.60;;;;;;;5.54;55.42;97986.91;113631;1199;64471;-80
2021/04/06 09:54:58;;;;;;;10.10;5.47;;;;;;;5.34;54.69;97991.61;113757;1200;64384;-82
2021/04/06 09:57:39;;;;;;;8.70;4.97;;;;;;;5.24;55.11;97987.88;113861;1198;64286;-88
2021/04/06 10:00:14;;;;;;;10.75;5.25;;;;;;;5.21;56.60;97988.91;115305;1199;64387;-90
2021/04/06 10:02:42;;;;;;;8.55;5.05;;;;;;;5.07;55.99;97996.80;114993;1200;64442;-89
2021/04/06 10:05:19;;;;;;;9.43;5.43;;;;;;;5.04;57.04;97992.55;116176;1166;63476;-90
2021/04/06 10:07:48;;;;;;;7.77;5.27;;;;;;;4.93;57.19;97992.36;114640;1199;64432;-91
2021/04/06 10:10:24;;;;;;;9.07;4.50;;;;;;;4.95;56.86;97995.77;114887;1199;64445;-88
2021/04/06 10:12:51;;;;;;;9.50;5.53;;;;;;;4.91;54.74;97991.59;114890;1198;64333;-91
2021/04/06 10:15:19;;;;;;;8.87;4.37;;;;;;;4.89;54.91;97993.48;115578;1199;64209;-94
2021/04/06 10:17:46;;;;;;;7.13;4.20;;;;;;;4.95;54.08;97986.97;114875;1199;64442;-91
2021/04/06 10:20:15;;;;;;;8.33;4.43;;;;;;;4.93;54.54;97983.59;114579;1200;64516;-81
2021/04/06 10:22:56;;;;;;;11.37;5.67;;;;;;;4.72;54.77;97988.38;113998;1199;64311;-83
2021/04/06 10:25:44;;;;;;;10.20;5.40;;;;;;;4.65;56.21;97985.23;113779;1200;64318;-83
2021/04/06 10:28:25;;;;;;;9.67;5.10;;;;;;;4.71;56.02;97978.73;114017;1197;64381;-83
2021/04/06 10:31:00;;;;;;;9.70;5.33;;;;;;;4.83;55.97;97984.14;113807;1199;64506;-83
2021/04/06 10:33:33;;;;;;;12.80;6.00;;;;;;;4.97;54.68;97978.02;113814;1199;64480;-81
2021/04/06 10:36:06;;;;;;;9.63;5.50;;;;;;;4.98;54.08;97966.53;114012;1198;64484;-82
2021/04/06 10:38:39;;;;;;;12.93;7.13;;;;;;;5.13;54.52;97969.17;113798;1199;64378;-82
2021/04/06 10:41:07;;;;;;;14.90;8.00;;;;;;;5.37;55.87;97961.52;113715;1199;64394;-82
2021/04/06 10:43:40;;;;;;;12.47;6.70;;;;;;;5.60;54.54;97955.63;113778;1200;64416;-82
2021/04/06 10:46:10;;;;;;;13.57;7.73;;;;;;;5.72;55.48;97969.88;113978;1199;64330;-82
2021/04/06 10:48:43;;;;;;;15.27;7.83;;;;;;;5.86;54.89;97964.55;113910;1199;64415;-82
2021/04/06 10:51:16;;;;;;;9.15;5.15;;;;;;;5.91;53.56;97959.81;114011;1199;64484;-82
2021/04/06 10:53:50;;;;;;;12.60;7.40;;;;;;;5.84;54.55;97961.14;113981;1199;64389;-82
2021/04/06 10:56:21;;;;;;;12.93;7.73;;;;;;;5.66;55.08;97964.97;113757;1200;64470;-82
2021/04/06 10:58:52;;;;;;;15.57;9.20;;;;;;;5.69;55.45;97963.00;114084;1198;64494;-83
2021/04/06 11:01:26;;;;;;;16.50;7.60;;;;;;;5.84;54.94;97962.95;113919;1199;64413;-84
2021/04/06 11:03:54;;;;;;;20.17;10.83;;;;;;;6.15;55.14;97956.55;114004;1199;64371;-86
2021/04/06 11:06:34;;;;;;;12.20;8.27;;;;;;;6.40;54.72;97958.44;113946;1200;64484;-83
2021/04/06 11:09:22;;;;;;;17.83;10.23;;;;;;;6.59;54.99;97956.25;113792;1199;64365;-83
2021/04/06 11:11:51;;;;;;;12.03;6.97;;;;;;;6.86;53.33;97957.97;114220;1198;64404;-83
2021/04/06 11:14:20;;;;;;;12.97;7.47;;;;;;;6.93;54.20;97959.25;114233;1199;64446;-81
2021/04/06 11:16:49;;;;;;;14.45;8.15;;;;;;;7.14;53.01;97940.18;114173;1199;64388;-82
2021/04/06 11:19:31;;;;;;;11.73;7.53;;;;;;;7.12;53.97;97945.58;113736;1200;64475;-81
2021/04/06 11:22:11;;;;;;;12.37;7.07;;;;;;;7.28;52.80;97948.00;113941;1199;64490;-84
2021/04/06 11:24:38;;;;;;;;;;;;;;;7.29;53.19;97939.08;113978;1204;64465;-82
2021/04/06 11:27:08;;;;;;;10.67;6.53;;;;;;;6.98;51.16;97935.95;113855;1199;64371;-82
2021/04/06 11:29:36;;;;;;;8.90;5.73;;;;;;;6.64;50.72;97940.06;113815;1199;64381;-81
2021/04/06 11:32:07;;;;;;;14.07;8.80;;;;;;;6.40;52.81;97937.27;114013;1200;64404;-83
2021/04/06 11:34:35;;;;;;;12.00;5.90;;;;;;;6.32;49.95;97934.30;113884;1199;64410;-82
2021/04/06 11:37:03;;;;;;;10.43;5.97;;;;;;;6.44;51.41;97922.02;114079;1199;64369;-81
2021/04/06 11:39:34;;;;;;;8.73;4.77;;;;;;;6.62;51.55;97933.17;114123;1199;64356;-82
2021/04/06 11:42:03;;;;;;;10.63;5.10;;;;;;;6.64;51.85;97918.04;113975;1200;64529;-81
2021/04/06 11:44:30;;;;;;;9.97;5.70;;;;;;;6.58;50.95;97919.28;113811;1199;64375;-82
2021/04/06 11:46:59;;;;;;;9.80;5.77;;;;;;;6.32;51.08;97929.00;114011;1199;64407;-82
2021/04/06 11:49:27;;;;;;;10.87;5.43;;;;;;;6.25;51.30;97922.41;113946;1198;64493;-82